Time;durP1;ratioP1;P1;durP2;ratioP2;P2;SDS_P1;SDS_P2;PMS_P1;PMS_P2;Temp;Humidity;BMP_temperature;BMP_pressure;BME280_temperature;BME280_humidity;BME280_pressure;Samples;Min_cycle;Max_cycle;Signal;HPM_P1;HPM_P2
2021/01/16 00:00:23;;;;;;;9.13;8.33;;;;;;;;;;5018398;28;20484;-70
2021/01/16 00:02:49;;;;;;;9.30;8.50;;;;;;;;;;5033882;28;20453;-70
2021/01/16 00:05:17;;;;;;;10.43;8.73;;;;;;;;;;5030295;28;20492;-70
2021/01/16 00:07:45;;;;;;;9.57;8.67;;;;;;;;;;5033136;28;20457;-70
2021/01/16 00:10:12;;;;;;;9.17;8.27;;;;;;;;;;5032571;28;20472;-70
2021/01/16 00:12:39;;;;;;;9.40;8.40;;;;;;;;;;5032416;28;20480;-69
2021/01/16 00:15:07;;;;;;;9.67;8.70;;;;;;;;;;5037901;28;20463;-69
2021/01/16 00:17:34;;;;;;;8.53;7.73;;;;;;;;;;5040174;28;20459;-69
2021/01/16 00:20:01;;;;;;;9.00;8.10;;;;;;;;;;5032857;28;20464;-70
2021/01/16 00:22:27;;;;;;;8.90;8.10;;;;;;;;;;5031004;28;20468;-70
2021/01/16 00:24:58;;;;;;;8.37;7.57;;;;;;;;;;5032282;28;20472;-70
2021/01/16 00:27:24;;;;;;;10.10;8.50;;;;;;;;;;5030572;28;20500;-70
2021/01/16 00:29:51;;;;;;;9.97;8.60;;;;;;;;;;5032054;28;20538;-70
2021/01/16 00:32:19;;;;;;;9.40;8.20;;;;;;;;;;5029173;28;20492;-71
2021/01/16 00:34:45;;;;;;;10.30;9.30;;;;;;;;;;5031395;28;20510;-71
2021/01/16 00:37:12;;;;;;;9.57;8.57;;;;;;;;;;5032841;28;20460;-70
2021/01/16 00:39:39;;;;;;;9.03;8.20;;;;;;;;;;5031203;28;21045;-70
2021/01/16 00:42:06;;;;;;;9.13;8.33;;;;;;;;;;5031634;28;20492;-70
2021/01/16 00:44:33;;;;;;;8.47;7.77;;;;;;;;;;5032360;28;20515;-70
2021/01/16 00:46:59;;;;;;;9.53;8.50;;;;;;;;;;5030136;28;20864;-70
2021/01/16 00:49:27;;;;;;;9.67;8.77;;;;;;;;;;5032264;28;20444;-70
2021/01/16 00:51:53;;;;;;;9.23;8.33;;;;;;;;;;5031535;28;20488;-71
2021/01/16 00:54:20;;;;;;;10.43;8.63;;;;;;;;;;5028421;28;20468;-70
2021/01/16 00:56:47;;;;;;;11.30;10.00;;;;;;;;;;5015422;28;20489;-70
2021/01/16 00:59:13;;;;;;;9.20;8.30;;;;;;;;;;5031720;28;20550;-70
2021/01/16 01:01:40;;;;;;;9.30;8.50;;;;;;;;;;5031164;28;20489;-70
2021/01/16 01:04:09;;;;;;;9.43;8.53;;;;;;;;;;5030739;28;20465;-70
2021/01/16 01:06:36;;;;;;;9.43;8.57;;;;;;;;;;5028947;28;20485;-71
2021/01/16 01:09:04;;;;;;;9.20;8.40;;;;;;;;;;5032129;28;20936;-71
2021/01/16 01:11:31;;;;;;;10.50;8.10;;;;;;;;;;5031397;28;20481;-71
2021/01/16 01:13:57;;;;;;;8.83;8.07;;;;;;;;;;5031947;28;20449;-71
2021/01/16 01:16:24;;;;;;;9.40;8.53;;;;;;;;;;5031342;28;20472;-71
2021/01/16 01:18:50;;;;;;;10.00;9.20;;;;;;;;;;5029292;28;20473;-72
2021/01/16 01:21:17;;;;;;;9.30;8.40;;;;;;;;;;5031686;28;20492;-71
2021/01/16 01:23:45;;;;;;;8.77;7.87;;;;;;;;;;5031868;28;20464;-71
2021/01/16 01:26:11;;;;;;;8.83;8.03;;;;;;;;;;5031306;28;21073;-71
2021/01/16 01:28:38;;;;;;;8.93;8.13;;;;;;;;;;5030446;28;20452;-71
2021/01/16 01:31:05;;;;;;;8.83;8.03;;;;;;;;;;5030461;28;21015;-71
2021/01/16 01:33:31;;;;;;;10.10;9.03;;;;;;;;;;5029767;28;20468;-71
2021/01/16 01:35:58;;;;;;;9.03;8.23;;;;;;;;;;5030617;28;20468;-71
2021/01/16 01:38:25;;;;;;;8.90;8.00;;;;;;;;;;5030927;28;20536;-71
2021/01/16 01:40:52;;;;;;;11.70;8.63;;;;;;;;;;5029927;28;20485;-71
2021/01/16 01:43:19;;;;;;;9.40;8.50;;;;;;;;;;5032314;28;20518;-71
2021/01/16 01:45:45;;;;;;;8.80;7.93;;;;;;;;;;5031139;28;20854;-71
2021/01/16 01:48:12;;;;;;;9.07;8.27;;;;;;;;;;5030056;28;20821;-71
2021/01/16 01:50:39;;;;;;;9.00;8.20;;;;;;;;;;5030861;28;20519;-71
2021/01/16 01:53:06;;;;;;;10.33;8.43;;;;;;;;;;5030885;28;20477;-71
2021/01/16 01:55:34;;;;;;;9.43;8.63;;;;;;;;;;5031597;28;20484;-70
2021/01/16 01:58:02;;;;;;;9.77;8.90;;;;;;;;;;5029922;28;20472;-70
2021/01/16 02:00:29;;;;;;;8.37;7.57;;;;;;;;;;5030762;28;20472;-70
2021/01/16 02:03:00;;;;;;;9.33;8.60;;;;;;;;;;5018468;28;20453;-70
2021/01/16 02:05:27;;;;;;;8.73;7.93;;;;;;;;;;5030377;28;20488;-71
2021/01/16 02:07:53;;;;;;;9.50;8.67;;;;;;;;;;5030706;28;20467;-71
2021/01/16 02:10:22;;;;;;;9.83;8.93;;;;;;;;;;5030243;28;20464;-71
2021/01/16 02:12:51;;;;;;;9.53;8.73;;;;;;;;;;5031301;28;20673;-70
2021/01/16 02:15:25;;;;;;;8.63;7.83;;;;;;;;;;5031717;28;20514;-70
2021/01/16 02:17:57;;;;;;;9.10;8.30;;;;;;;;;;5011860;28;20453;-71
2021/01/16 02:20:27;;;;;;;8.63;7.83;;;;;;;;;;5024304;28;20480;-70
2021/01/16 02:23:01;;;;;;;8.87;8.03;;;;;;;;;;5028664;28;20994;-70
2021/01/16 02:25:37;;;;;;;9.33;8.50;;;;;;;;;;5014799;28;20514;-70
2021/01/16 02:28:07;;;;;;;9.60;8.53;;;;;;;;;;5031335;28;20467;-70
2021/01/16 02:30:35;;;;;;;9.17;8.37;;;;;;;;;;5030696;28;20488;-70
2021/01/16 02:33:03;;;;;;;8.70;7.90;;;;;;;;;;5029813;28;20465;-70
2021/01/16 02:35:31;;;;;;;9.07;8.20;;;;;;;;;;5031541;28;20444;-70
2021/01/16 02:38:03;;;;;;;9.67;8.77;;;;;;;;;;5029720;28;20464;-69
2021/01/16 02:40:32;;;;;;;9.23;8.40;;;;;;;;;;5015701;28;21014;-70
2021/01/16 02:43:19;;;;;;;9.93;8.93;;;;;;;;;;5029627;28;20853;-69
2021/01/16 02:45:46;;;;;;;8.50;7.70;;;;;;;;;;5030836;28;20480;-70
2021/01/16 02:48:16;;;;;;;9.03;8.23;;;;;;;;;;5031240;28;20449;-70
2021/01/16 02:50:44;;;;;;;8.90;8.20;;;;;;;;;;5034210;28;20476;-70
2021/01/16 02:53:11;;;;;;;9.23;8.20;;;;;;;;;;5031276;28;20522;-70
2021/01/16 02:55:39;;;;;;;9.63;8.73;;;;;;;;;;5034608;28;20472;-69
2021/01/16 02:58:06;;;;;;;10.40;9.50;;;;;;;;;;5034462;28;20449;-70
2021/01/16 03:00:33;;;;;;;10.40;9.30;;;;;;;;;;5033824;28;22271;-69
2021/01/16 03:03:00;;;;;;;9.90;9.00;;;;;;;;;;5034665;28;20937;-69
2021/01/16 03:05:27;;;;;;;9.40;8.60;;;;;;;;;;5029866;28;20854;-70
2021/01/16 03:07:53;;;;;;;10.23;9.23;;;;;;;;;;5031728;28;20555;-70
2021/01/16 03:10:21;;;;;;;9.60;8.60;;;;;;;;;;5034623;28;20445;-69
2021/01/16 03:12:48;;;;;;;8.97;8.17;;;;;;;;;;5033244;28;20457;-70
2021/01/16 03:15:15;;;;;;;10.80;8.93;;;;;;;;;;5034273;28;20526;-70
2021/01/16 03:17:47;;;;;;;9.40;8.47;;;;;;;;;;5034149;28;21027;-70
2021/01/16 03:20:15;;;;;;;9.93;8.93;;;;;;;;;;5034076;28;20469;-70
2021/01/16 03:22:42;;;;;;;9.33;8.43;;;;;;;;;;5031345;28;20460;-70
2021/01/16 03:25:09;;;;;;;9.40;8.50;;;;;;;;;;5034617;28;20452;-70
2021/01/16 03:27:36;;;;;;;9.47;8.57;;;;;;;;;;5033653;28;20979;-70
2021/01/16 03:30:02;;;;;;;9.77;8.87;;;;;;;;;;5034452;28;20823;-70
2021/01/16 03:32:29;;;;;;;9.10;8.30;;;;;;;;;;5038201;28;20460;-69
2021/01/16 03:34:56;;;;;;;11.60;9.60;;;;;;;;;;5039810;28;21011;-69
2021/01/16 03:37:23;;;;;;;9.63;8.73;;;;;;;;;;5034725;28;20461;-70
2021/01/16 03:39:50;;;;;;;9.90;8.97;;;;;;;;;;5033654;28;20469;-70
2021/01/16 03:42:17;;;;;;;10.23;9.33;;;;;;;;;;5032150;28;20491;-70
2021/01/16 03:44:45;;;;;;;9.03;8.23;;;;;;;;;;5034400;28;20452;-70
2021/01/16 03:47:12;;;;;;;10.33;9.37;;;;;;;;;;5033870;28;20511;-71
2021/01/16 03:49:38;;;;;;;9.80;8.70;;;;;;;;;;5033320;28;20461;-71
2021/01/16 03:52:06;;;;;;;10.40;9.40;;;;;;;;;;5028400;28;20485;-70
2021/01/16 03:54:33;;;;;;;9.83;8.93;;;;;;;;;;5035208;28;20448;-71
2021/01/16 03:56:59;;;;;;;10.00;9.10;;;;;;;;;;5031423;28;20472;-71
2021/01/16 03:59:26;;;;;;;4.50;4.10;;;;;;;;;;5034015;28;20455;-71
2021/01/16 04:01:53;;;;;;;9.13;8.30;;;;;;;;;;5032543;28;21031;-71
2021/01/16 04:04:19;;;;;;;10.13;9.20;;;;;;;;;;5028141;28;20483;-71
2021/01/16 04:06:46;;;;;;;11.97;10.87;;;;;;;;;;5034174;28;20480;-71
2021/01/16 04:09:14;;;;;;;10.83;9.83;;;;;;;;;;5033246;28;20905;-71
2021/01/16 04:11:40;;;;;;;12.30;11.20;;;;;;;;;;5033681;28;20905;-71
2021/01/16 04:14:07;;;;;;;11.37;10.37;;;;;;;;;;5034708;28;20952;-71
2021/01/16 04:16:34;;;;;;;11.37;10.40;;;;;;;;;;5034208;28;20476;-71
2021/01/16 04:19:01;;;;;;;11.67;10.57;;;;;;;;;;5033013;28;20492;-71
2021/01/16 04:21:27;;;;;;;10.80;9.70;;;;;;;;;;5035005;28;20476;-70
2021/01/16 04:23:54;;;;;;;10.33;9.43;;;;;;;;;;5033427;28;20468;-70
2021/01/16 04:26:21;;;;;;;11.30;10.20;;;;;;;;;;5038343;28;20484;-70
2021/01/16 04:28:48;;;;;;;10.80;9.80;;;;;;;;;;5037961;28;20507;-70
2021/01/16 04:31:15;;;;;;;9.80;8.80;;;;;;;;;;5046727;28;20482;-70
2021/01/16 04:33:41;;;;;;;10.37;9.37;;;;;;;;;;5050758;28;20616;-70
2021/01/16 04:36:08;;;;;;;10.80;9.80;;;;;;;;;;5051066;28;20471;-71
2021/01/16 04:38:37;;;;;;;10.70;9.60;;;;;;;;;;5050090;28;20464;-73
2021/01/16 04:41:04;;;;;;;10.60;9.70;;;;;;;;;;5051799;28;20524;-72
2021/01/16 04:43:31;;;;;;;10.13;9.30;;;;;;;;;;5052134;28;20449;-71
2021/01/16 04:46:03;;;;;;;10.37;9.40;;;;;;;;;;5053604;28;20484;-71
2021/01/16 04:48:30;;;;;;;9.70;8.90;;;;;;;;;;5052672;28;20466;-71
2021/01/16 04:51:00;;;;;;;10.43;9.53;;;;;;;;;;5045806;28;21135;-71
2021/01/16 04:53:32;;;;;;;10.40;8.93;;;;;;;;;;5052719;28;20455;-71
2021/01/16 04:56:00;;;;;;;9.67;8.87;;;;;;;;;;5052731;28;20445;-72
2021/01/16 04:58:26;;;;;;;9.30;8.50;;;;;;;;;;5050339;28;20464;-71
2021/01/16 05:00:56;;;;;;;10.97;9.97;;;;;;;;;;5053523;28;20465;-71
2021/01/16 05:03:24;;;;;;;10.17;9.27;;;;;;;;;;5054344;28;20460;-72
2021/01/16 05:05:51;;;;;;;9.80;9.00;;;;;;;;;;5054196;28;20465;-72
2021/01/16 05:08:19;;;;;;;9.97;9.17;;;;;;;;;;5053498;28;20482;-72
2021/01/16 05:10:50;;;;;;;10.20;9.30;;;;;;;;;;5054835;28;20472;-72
2021/01/16 05:13:17;;;;;;;10.80;9.80;;;;;;;;;;5051921;28;20457;-72
2021/01/16 05:15:44;;;;;;;10.63;9.70;;;;;;;;;;5043928;28;20458;-71
2021/01/16 05:18:12;;;;;;;10.37;9.37;;;;;;;;;;5042144;28;20498;-71
2021/01/16 05:20:39;;;;;;;10.30;9.40;;;;;;;;;;5032903;28;20506;-71
2021/01/16 05:23:12;;;;;;;10.37;9.47;;;;;;;;;;5032917;28;20464;-71
2021/01/16 05:25:48;;;;;;;11.80;10.70;;;;;;;;;;5032158;28;20484;-73
2021/01/16 05:28:16;;;;;;;9.50;8.70;;;;;;;;;;5029334;28;20460;-71
2021/01/16 05:30:50;;;;;;;10.33;9.43;;;;;;;;;;5031586;28;20481;-73
2021/01/16 05:33:18;;;;;;;10.00;9.10;;;;;;;;;;5031711;28;20537;-72
2021/01/16 05:35:45;;;;;;;10.00;9.17;;;;;;;;;;5033248;28;20946;-72
2021/01/16 05:38:13;;;;;;;10.13;9.23;;;;;;;;;;5030654;28;20546;-73
2021/01/16 05:40:40;;;;;;;9.97;9.07;;;;;;;;;;5031728;28;20611;-73
2021/01/16 05:43:07;;;;;;;9.77;8.90;;;;;;;;;;5031410;28;20845;-70
2021/01/16 05:45:34;;;;;;;10.47;9.53;;;;;;;;;;5032424;28;20445;-70
2021/01/16 05:48:01;;;;;;;9.83;9.03;;;;;;;;;;5032849;28;20799;-71
2021/01/16 05:50:29;;;;;;;9.77;8.97;;;;;;;;;;5032634;28;20468;-70
2021/01/16 05:52:56;;;;;;;9.43;8.63;;;;;;;;;;5032182;28;20452;-70
2021/01/16 05:55:23;;;;;;;9.83;8.93;;;;;;;;;;5032249;28;20551;-71
2021/01/16 05:57:50;;;;;;;8.97;8.30;;;;;;;;;;5014280;28;20480;-70
2021/01/16 06:00:23;;;;;;;10.30;9.30;;;;;;;;;;5022717;28;20452;-72
2021/01/16 06:02:51;;;;;;;10.07;9.17;;;;;;;;;;5032402;28;20433;-70
2021/01/16 06:05:22;;;;;;;10.17;9.27;;;;;;;;;;5031762;28;20522;-70
2021/01/16 06:07:50;;;;;;;10.90;10.00;;;;;;;;;;5031537;28;20794;-71
2021/01/16 06:10:18;;;;;;;9.60;8.80;;;;;;;;;;5031881;28;20453;-70
2021/01/16 06:12:45;;;;;;;10.27;9.37;;;;;;;;;;5031568;28;20449;-76
2021/01/16 06:15:16;;;;;;;10.20;9.30;;;;;;;;;;5032041;28;20453;-69
2021/01/16 06:17:44;;;;;;;9.90;9.00;;;;;;;;;;5032097;28;20440;-69
2021/01/16 06:20:13;;;;;;;9.80;8.90;;;;;;;;;;5012054;28;20450;-71
2021/01/16 06:22:41;;;;;;;9.80;9.00;;;;;;;;;;5022177;28;21030;-70
2021/01/16 06:25:16;;;;;;;9.87;9.07;;;;;;;;;;5033081;28;20950;-69
2021/01/16 06:27:45;;;;;;;9.50;8.70;;;;;;;;;;5016541;28;20547;-69
2021/01/16 06:30:15;;;;;;;10.00;9.20;;;;;;;;;;5025887;28;20457;-70
2021/01/16 06:32:47;;;;;;;10.00;9.20;;;;;;;;;;5035699;28;20509;-73
2021/01/16 06:35:14;;;;;;;10.20;9.40;;;;;;;;;;5035448;28;20460;-70
2021/01/16 06:37:45;;;;;;;10.27;9.27;;;;;;;;;;5035385;28;20448;-73
2021/01/16 06:40:13;;;;;;;9.60;8.70;;;;;;;;;;5033542;28;20453;-71
2021/01/16 06:42:41;;;;;;;10.37;9.47;;;;;;;;;;5035224;28;20460;-73
2021/01/16 06:45:09;;;;;;;10.07;8.90;;;;;;;;;;5036902;28;20813;-70
2021/01/16 06:47:36;;;;;;;10.00;9.17;;;;;;;;;;5041368;28;20480;-70
2021/01/16 06:50:04;;;;;;;10.60;9.70;;;;;;;;;;5040370;28;20452;-70
2021/01/16 06:52:34;;;;;;;10.50;9.60;;;;;;;;;;5033020;28;20461;-70
2021/01/16 06:55:03;;;;;;;10.13;9.33;;;;;;;;;;5035207;28;20523;-71
2021/01/16 06:57:30;;;;;;;9.83;8.93;;;;;;;;;;5036298;28;20452;-70
2021/01/16 06:59:59;;;;;;;9.70;8.90;;;;;;;;;;5034438;28;20452;-70
2021/01/16 07:02:27;;;;;;;10.47;9.57;;;;;;;;;;5035034;28;20468;-70
2021/01/16 07:04:55;;;;;;;9.87;9.07;;;;;;;;;;5034481;28;20452;-74
2021/01/16 07:07:32;;;;;;;10.50;9.60;;;;;;;;;;5030235;28;20854;-71
2021/01/16 07:10:00;;;;;;;10.20;9.30;;;;;;;;;;5034525;28;20527;-70
2021/01/16 07:12:26;;;;;;;10.10;9.17;;;;;;;;;;5034794;28;20518;-73
2021/01/16 07:14:53;;;;;;;7.20;4.30;;;;;;;;;;5034074;28;20453;-71
2021/01/16 07:17:25;;;;;;;11.30;4.63;;;;;;;;;;5018087;28;20813;-71
2021/01/16 07:19:52;;;;;;;4.30;3.90;;;;;;;;;;5033956;28;20827;-69
2021/01/16 07:22:18;;;;;;;6.17;2.87;;;;;;;;;;5034044;28;20477;-74
2021/01/16 07:24:46;;;;;;;5.87;2.90;;;;;;;;;;5034181;28;20469;-70
2021/01/16 07:27:13;;;;;;;4.57;2.93;;;;;;;;;;5032685;28;20492;-72
2021/01/16 07:29:40;;;;;;;4.20;3.00;;;;;;;;;;5033271;28;20475;-70
2021/01/16 07:32:14;;;;;;;3.13;2.83;;;;;;;;;;5030432;28;20496;-74
2021/01/16 07:34:43;;;;;;;5.13;3.47;;;;;;;;;;5033471;28;20445;-70
2021/01/16 07:37:10;;;;;;;3.53;3.23;;;;;;;;;;5033707;28;20456;-70
2021/01/16 07:39:39;;;;;;;3.00;2.80;;;;;;;;;;5033985;28;21034;-72
2021/01/16 07:42:10;;;;;;;3.93;3.53;;;;;;;;;;5032384;28;20503;-70
2021/01/16 07:44:41;;;;;;;3.30;3.00;;;;;;;;;;5033397;28;20858;-69
2021/01/16 07:47:16;;;;;;;3.70;3.40;;;;;;;;;;5016276;28;20984;-70
2021/01/16 07:49:52;;;;;;;3.87;3.50;;;;;;;;;;5033078;28;20456;-73
2021/01/16 07:52:23;;;;;;;3.90;3.30;;;;;;;;;;5033270;28;20496;-69
2021/01/16 07:54:57;;;;;;;3.30;3.00;;;;;;;;;;5033527;28;20474;-71
2021/01/16 07:57:26;;;;;;;4.80;3.97;;;;;;;;;;5033106;28;20482;-69
2021/01/16 07:59:57;;;;;;;4.20;3.50;;;;;;;;;;5033591;28;20457;-69
2021/01/16 08:02:29;;;;;;;3.83;3.53;;;;;;;;;;5034051;28;20503;-72
2021/01/16 08:05:04;;;;;;;3.57;3.27;;;;;;;;;;5032663;28;20464;-70
2021/01/16 08:07:44;;;;;;;3.97;3.27;;;;;;;;;;5033752;28;20531;-69
2021/01/16 08:10:14;;;;;;;3.67;3.37;;;;;;;;;;5033155;28;20456;-69
2021/01/16 08:12:42;;;;;;;4.90;4.50;;;;;;;;;;5032824;28;20483;-76
2021/01/16 08:15:12;;;;;;;5.30;3.83;;;;;;;;;;5032678;28;20464;-69
2021/01/16 08:17:39;;;;;;;4.43;3.97;;;;;;;;;;5039428;28;20467;-69
2021/01/16 08:20:09;;;;;;;5.80;3.63;;;;;;;;;;5031671;28;20468;-70
2021/01/16 08:22:39;;;;;;;3.37;3.07;;;;;;;;;;5033346;28;20453;-69
2021/01/16 08:25:07;;;;;;;4.17;3.37;;;;;;;;;;5029719;28;20469;-72
2021/01/16 08:27:35;;;;;;;4.50;4.10;;;;;;;;;;5031025;28;20531;-69
2021/01/16 08:30:09;;;;;;;4.30;3.60;;;;;;;;;;5031110;28;20956;-69
2021/01/16 08:32:50;;;;;;;4.13;3.70;;;;;;;;;;5032322;28;20514;-72
2021/01/16 08:35:22;;;;;;;3.90;3.20;;;;;;;;;;5015467;28;20531;-70
2021/01/16 08:37:49;;;;;;;4.80;3.43;;;;;;;;;;5031975;28;20460;-70
2021/01/16 08:40:31;;;;;;;8.50;7.80;;;;;;;;;;5030673;28;20534;-68
2021/01/16 08:42:58;;;;;;;7.97;7.27;;;;;;;;;;5032324;28;20467;-70
2021/01/16 08:45:25;;;;;;;8.13;7.50;;;;;;;;;;5029008;28;20475;-70
2021/01/16 08:47:52;;;;;;;7.00;6.40;;;;;;;;;;5029101;28;20484;-74
2021/01/16 08:50:20;;;;;;;6.27;5.67;;;;;;;;;;5032083;28;20456;-72
2021/01/16 08:52:48;;;;;;;6.97;6.47;;;;;;;;;;5020919;28;20452;-75
2021/01/16 08:55:15;;;;;;;7.17;6.47;;;;;;;;;;5032091;28;20453;-74
2021/01/16 08:57:41;;;;;;;6.50;5.90;;;;;;;;;;5032731;28;20508;-72
2021/01/16 09:00:15;;;;;;;6.30;5.83;;;;;;;;;;5031742;28;20964;-70
2021/01/16 09:02:41;;;;;;;6.30;5.80;;;;;;;;;;5032087;28;20449;-70
2021/01/16 09:05:23;;;;;;;6.30;5.70;;;;;;;;;;5032687;28;20457;-70
2021/01/16 09:07:53;;;;;;;5.93;5.40;;;;;;;;;;5032036;28;21013;-70
2021/01/16 09:10:23;;;;;;;5.27;4.77;;;;;;;;;;5032018;28;20544;-70
2021/01/16 09:12:50;;;;;;;5.73;5.30;;;;;;;;;;5032362;28;20496;-70
2021/01/16 09:15:18;;;;;;;5.83;5.33;;;;;;;;;;5025965;28;20456;-69
2021/01/16 09:17:59;;;;;;;6.43;5.83;;;;;;;;;;5031838;28;20813;-71
2021/01/16 09:20:26;;;;;;;7.67;6.97;;;;;;;;;;5031017;28;20469;-72
2021/01/16 09:22:54;;;;;;;5.77;5.27;;;;;;;;;;5031901;28;20449;-71
2021/01/16 09:25:21;;;;;;;7.80;7.00;;;;;;;;;;5031599;28;20499;-71
2021/01/16 09:27:48;;;;;;;7.90;7.20;;;;;;;;;;5031738;28;20488;-72
2021/01/16 09:30:25;;;;;;;8.10;7.40;;;;;;;;;;5031151;28;20966;-71
2021/01/16 09:32:52;;;;;;;8.60;7.80;;;;;;;;;;5031417;28;20939;-72
2021/01/16 09:35:33;;;;;;;7.80;7.10;;;;;;;;;;5031311;28;20864;-72
2021/01/16 09:38:01;;;;;;;9.33;8.43;;;;;;;;;;5031901;28;20448;-72
2021/01/16 09:40:35;;;;;;;7.60;7.00;;;;;;;;;;5030902;28;20565;-72
2021/01/16 09:43:13;;;;;;;8.07;7.43;;;;;;;;;;5031789;28;20457;-71
2021/01/16 09:45:49;;;;;;;8.83;8.00;;;;;;;;;;5030952;28;20822;-71
2021/01/16 09:48:38;;;;;;;8.80;8.03;;;;;;;;;;5031276;28;20448;-71
2021/01/16 09:51:05;;;;;;;10.23;9.23;;;;;;;;;;5031675;28;20469;-72
2021/01/16 09:53:33;;;;;;;9.70;8.80;;;;;;;;;;5032063;28;20445;-71
2021/01/16 09:55:59;;;;;;;8.43;7.73;;;;;;;;;;5031544;28;20455;-73
2021/01/16 09:58:30;;;;;;;9.40;8.60;;;;;;;;;;5032226;28;20455;-72
2021/01/16 10:00:56;;;;;;;9.37;8.57;;;;;;;;;;5043765;28;20828;-71
2021/01/16 10:03:33;;;;;;;10.83;9.80;;;;;;;;;;5044388;28;20463;-72
2021/01/16 10:06:05;;;;;;;10.37;9.30;;;;;;;;;;5037113;28;20471;-73
2021/01/16 10:08:33;;;;;;;9.80;9.00;;;;;;;;;;5035798;28;20520;-73
2021/01/16 10:11:00;;;;;;;9.57;8.77;;;;;;;;;;5035779;28;20529;-70
2021/01/16 10:13:30;;;;;;;10.57;9.60;;;;;;;;;;5035547;28;20444;-68
2021/01/16 10:15:58;;;;;;;10.63;9.63;;;;;;;;;;5035563;28;20463;-66
2021/01/16 10:18:26;;;;;;;10.90;10.00;;;;;;;;;;5034717;28;20452;-66
2021/01/16 10:21:00;;;;;;;11.60;10.50;;;;;;;;;;5035862;28;20476;-65
2021/01/16 10:23:28;;;;;;;10.47;9.47;;;;;;;;;;5042924;28;20443;-65
2021/01/16 10:26:00;;;;;;;10.67;9.53;;;;;;;;;;5051439;28;20456;-67
2021/01/16 10:28:27;;;;;;;10.93;9.93;;;;;;;;;;5053261;28;20498;-65
2021/01/16 10:30:58;;;;;;;11.47;10.47;;;;;;;;;;5052596;28;20464;-66
2021/01/16 10:33:25;;;;;;;10.70;9.70;;;;;;;;;;5051678;28;20457;-65
2021/01/16 10:36:03;;;;;;;10.73;9.83;;;;;;;;;;5053955;28;20451;-68
2021/01/16 10:38:40;;;;;;;10.70;9.30;;;;;;;;;;5052704;28;20479;-67
2021/01/16 10:41:08;;;;;;;10.20;9.20;;;;;;;;;;5049833;28;20498;-68
2021/01/16 10:43:35;;;;;;;8.33;7.53;;;;;;;;;;5050647;28;20445;-70
2021/01/16 10:46:06;;;;;;;9.60;8.70;;;;;;;;;;5047155;28;20440;-71
2021/01/16 10:48:33;;;;;;;10.40;9.50;;;;;;;;;;5035474;28;20453;-71
2021/01/16 10:51:01;;;;;;;8.77;7.60;;;;;;;;;;5037116;28;20464;-71
2021/01/16 10:53:35;;;;;;;9.40;8.70;;;;;;;;;;5038163;28;20452;-70
2021/01/16 10:56:07;;;;;;;9.27;8.40;;;;;;;;;;5037157;28;20448;-70
2021/01/16 10:58:35;;;;;;;10.37;8.70;;;;;;;;;;5038106;28;20444;-70
2021/01/16 11:01:02;;;;;;;9.73;8.83;;;;;;;;;;5035345;28;21029;-70
2021/01/16 11:03:29;;;;;;;9.20;8.33;;;;;;;;;;5034487;28;20530;-71
2021/01/16 11:05:56;;;;;;;10.13;9.13;;;;;;;;;;5034479;28;20456;-70
2021/01/16 11:08:27;;;;;;;10.73;9.83;;;;;;;;;;5034049;28;20543;-71
2021/01/16 11:10:54;;;;;;;11.17;10.10;;;;;;;;;;5030971;28;20890;-70
2021/01/16 11:13:22;;;;;;;12.37;11.17;;;;;;;;;;5034362;28;20452;-70
2021/01/16 11:15:53;;;;;;;10.80;9.80;;;;;;;;;;5034175;28;20956;-71
2021/01/16 11:18:30;;;;;;;11.80;10.70;;;;;;;;;;5034269;28;20452;-70
2021/01/16 11:20:59;;;;;;;10.30;9.40;;;;;;;;;;5032324;28;20484;-70
2021/01/16 11:23:30;;;;;;;10.83;9.83;;;;;;;;;;5033496;28;20452;-70
2021/01/16 11:25:57;;;;;;;9.73;8.77;;;;;;;;;;5033664;28;20456;-70
2021/01/16 11:28:24;;;;;;;10.57;9.57;;;;;;;;;;5025606;28;20457;-70
2021/01/16 11:30:53;;;;;;;10.07;9.17;;;;;;;;;;5033609;28;20471;-70
2021/01/16 11:33:25;;;;;;;9.73;8.70;;;;;;;;;;5032719;28;20444;-69
2021/01/16 11:35:56;;;;;;;10.73;9.77;;;;;;;;;;5033546;28;20440;-72
2021/01/16 11:38:42;;;;;;;10.20;9.30;;;;;;;;;;5033345;28;20452;-70
2021/01/16 11:41:09;;;;;;;11.10;9.93;;;;;;;;;;5032907;28;20499;-70
2021/01/16 11:43:36;;;;;;;10.57;9.57;;;;;;;;;;5033788;28;20445;-71
2021/01/16 11:46:05;;;;;;;11.40;9.67;;;;;;;;;;5033208;28;20850;-71
2021/01/16 11:48:32;;;;;;;9.90;9.10;;;;;;;;;;5032770;28;20463;-71
2021/01/16 11:50:59;;;;;;;9.80;8.90;;;;;;;;;;5033350;28;20479;-71
2021/01/16 11:53:25;;;;;;;8.90;8.20;;;;;;;;;;5013687;28;20957;-71
2021/01/16 11:55:52;;;;;;;9.00;8.20;;;;;;;;;;5027119;28;20536;-72
2021/01/16 11:58:19;;;;;;;7.93;7.23;;;;;;;;;;5033814;28;20448;-71
2021/01/16 12:00:47;;;;;;;8.57;7.73;;;;;;;;;;5033144;28;20480;-72
2021/01/16 12:03:15;;;;;;;9.00;8.20;;;;;;;;;;5022174;28;20511;-72
2021/01/16 12:05:42;;;;;;;8.43;7.63;;;;;;;;;;5021269;28;21023;-72
2021/01/16 12:08:12;;;;;;;6.83;6.33;;;;;;;;;;5026703;28;20484;-71
2021/01/16 12:10:39;;;;;;;6.50;5.90;;;;;;;;;;5032183;28;20518;-70
2021/01/16 12:13:10;;;;;;;7.97;7.03;;;;;;;;;;5032210;28;20449;-70
2021/01/16 12:15:37;;;;;;;6.63;6.03;;;;;;;;;;5033135;28;20464;-70
2021/01/16 12:18:04;;;;;;;6.90;6.30;;;;;;;;;;5032953;28;20449;-70
2021/01/16 12:20:32;;;;;;;7.73;7.03;;;;;;;;;;5032543;28;20464;-70
2021/01/16 12:22:59;;;;;;;6.53;5.93;;;;;;;;;;5031442;28;20830;-72
2021/01/16 12:25:29;;;;;;;7.30;6.70;;;;;;;;;;5031257;28;20956;-72
2021/01/16 12:27:56;;;;;;;8.17;7.40;;;;;;;;;;5023336;28;20554;-71
2021/01/16 12:30:23;;;;;;;7.23;6.73;;;;;;;;;;5016103;28;20452;-72
2021/01/16 12:32:50;;;;;;;8.77;8.07;;;;;;;;;;5033208;28;20449;-71
2021/01/16 12:35:23;;;;;;;10.40;8.87;;;;;;;;;;5033109;28;20831;-71
2021/01/16 12:37:51;;;;;;;8.63;7.80;;;;;;;;;;5032540;28;20946;-71
2021/01/16 12:40:19;;;;;;;9.30;8.40;;;;;;;;;;5032411;28;20461;-70
2021/01/16 12:42:46;;;;;;;8.87;8.07;;;;;;;;;;5032008;28;20844;-72
2021/01/16 12:45:14;;;;;;;9.67;8.67;;;;;;;;;;5031568;28;20448;-71
2021/01/16 12:47:41;;;;;;;9.80;8.63;;;;;;;;;;5030438;28;20520;-72
2021/01/16 12:50:08;;;;;;;9.50;8.60;;;;;;;;;;5028368;28;20469;-70
2021/01/16 12:52:35;;;;;;;9.10;8.40;;;;;;;;;;5020833;28;20507;-71
2021/01/16 12:55:04;;;;;;;9.00;8.20;;;;;;;;;;5012092;28;20457;-72
2021/01/16 12:57:32;;;;;;;9.40;8.70;;;;;;;;;;5012238;28;20453;-70
2021/01/16 12:59:59;;;;;;;10.43;9.53;;;;;;;;;;5011803;28;20454;-71
2021/01/16 13:02:26;;;;;;;9.20;8.40;;;;;;;;;;5012288;28;20474;-71
2021/01/16 13:04:54;;;;;;;8.57;7.80;;;;;;;;;;5011918;28;20450;-70
2021/01/16 13:07:21;;;;;;;8.77;8.00;;;;;;;;;;5031520;28;21061;-71
2021/01/16 13:09:48;;;;;;;8.67;7.87;;;;;;;;;;5031668;28;20514;-71
2021/01/16 13:12:16;;;;;;;8.30;7.60;;;;;;;;;;5031618;28;20477;-71
2021/01/16 13:14:49;;;;;;;9.30;8.57;;;;;;;;;;5030265;28;20467;-71
2021/01/16 13:17:18;;;;;;;8.50;7.70;;;;;;;;;;5035803;28;20449;-71
2021/01/16 13:19:45;;;;;;;8.80;8.00;;;;;;;;;;5038355;28;20514;-69
2021/01/16 13:22:15;;;;;;;8.90;8.10;;;;;;;;;;5035038;28;20470;-71
2021/01/16 13:24:42;;;;;;;9.00;8.20;;;;;;;;;;5021806;28;20456;-70
2021/01/16 13:27:12;;;;;;;9.10;8.40;;;;;;;;;;5031853;28;20476;-70
2021/01/16 13:29:39;;;;;;;9.93;9.03;;;;;;;;;;5030989;28;20449;-71
2021/01/16 13:32:06;;;;;;;8.97;8.17;;;;;;;;;;5030886;28;20465;-71
2021/01/16 13:34:34;;;;;;;9.90;8.90;;;;;;;;;;5018420;28;20851;-70
2021/01/16 13:37:03;;;;;;;9.40;8.60;;;;;;;;;;5031864;28;20444;-70
2021/01/16 13:39:34;;;;;;;9.13;8.37;;;;;;;;;;5031627;28;20852;-70
2021/01/16 13:42:01;;;;;;;9.57;8.57;;;;;;;;;;5012062;28;582149;-70
2021/01/16 13:44:28;;;;;;;9.87;8.93;;;;;;;;;;5031951;28;20552;-69
2021/01/16 13:46:56;;;;;;;8.93;8.10;;;;;;;;;;5032401;28;21010;-70
2021/01/16 13:49:24;;;;;;;9.13;8.33;;;;;;;;;;5031919;28;20451;-70
2021/01/16 13:51:51;;;;;;;9.37;8.47;;;;;;;;;;5033510;28;20843;-71
2021/01/16 13:54:21;;;;;;;9.50;8.70;;;;;;;;;;5036834;28;20459;-71
2021/01/16 13:56:50;;;;;;;9.60;8.80;;;;;;;;;;5054938;28;20425;-69
2021/01/16 13:59:24;;;;;;;9.33;8.53;;;;;;;;;;5053488;28;20528;-70
2021/01/16 14:01:52;;;;;;;11.43;9.77;;;;;;;;;;5052971;28;20464;-72
2021/01/16 14:04:19;;;;;;;10.47;9.47;;;;;;;;;;5051984;28;20452;-69
2021/01/16 14:06:47;;;;;;;10.30;9.40;;;;;;;;;;5052305;28;20483;-68
2021/01/16 14:09:19;;;;;;;10.10;9.13;;;;;;;;;;5048456;28;20747;-71
2021/01/16 14:11:46;;;;;;;11.03;9.50;;;;;;;;;;5032549;28;20473;-69
2021/01/16 14:14:31;;;;;;;9.33;8.53;;;;;;;;;;5031973;28;20484;-70
2021/01/16 14:17:11;;;;;;;9.53;8.63;;;;;;;;;;5031698;28;20506;-71
2021/01/16 14:19:39;;;;;;;10.90;9.90;;;;;;;;;;5031334;28;20452;-69
2021/01/16 14:22:06;;;;;;;11.07;10.00;;;;;;;;;;5031510;28;20534;-73
2021/01/16 14:24:32;;;;;;;11.07;9.90;;;;;;;;;;5032233;28;20456;-72
2021/01/16 14:27:00;;;;;;;10.10;9.10;;;;;;;;;;5031692;28;20499;-72
2021/01/16 14:29:27;;;;;;;11.37;10.27;;;;;;;;;;5031386;28;20449;-70
2021/01/16 14:31:53;;;;;;;11.47;10.00;;;;;;;;;;5031610;28;20480;-73
2021/01/16 14:34:20;;;;;;;12.63;10.77;;;;;;;;;;5031511;28;20449;-70
2021/01/16 14:36:56;;;;;;;10.47;9.53;;;;;;;;;;5031510;28;20444;-72
2021/01/16 14:39:22;;;;;;;12.23;11.03;;;;;;;;;;5030912;28;20465;-68
2021/01/16 14:41:50;;;;;;;11.83;10.73;;;;;;;;;;5031132;28;20483;-72
2021/01/16 14:44:18;;;;;;;16.00;10.97;;;;;;;;;;5031907;28;20826;-71
2021/01/16 14:46:52;;;;;;;12.77;11.37;;;;;;;;;;5035102;28;20484;-72